Saint Cloud, MN (56393)

1:16 AM CDT on August 01, 2015 (GMT -0500)
Quail Meadows | | Change Station
CLOSE
Current Station
Personal Weather Station
Location: St Cloud, MN
Elevation: 1039 ft
Nearby Weather Stations

Elev 1039 ft 45.58 °N, 94.22 °W | Updated 1 minute ago

Partly Cloudy
Partly Cloudy
66.4 °F
Feels Like 66.4 °F
N
1.7
Wind Variable Wind from WNW

Today
High -- | Low -- °F
--% Chance of Precip.
Yesterday
High -- | Low -- °F
Precip. -- in
6:00 AM 8:45 PM
Full, 99% visible
Pressure 30.01 in
Visibility 10.0 miles
Clouds Scattered Clouds 7000 ft
Mostly Cloudy 9000 ft
Dew Point 61 °F
Humidity 82%
Rainfall 0.00 in
Snow Depth Not available.
UV 0 out of 12
Pollen 7.10 out of 12
Air Quality Not available.
Flu Activity Not available.
METAR KSTC 010553Z AUTO 22003KT 10SM SCT070 BKN090 18/15 A3000 RMK AO2 SLP162 T01780150 10261 20172 402780161 51004

More Conditions Fewer Conditions

Pressure 30.01 in
Visibility 10.0 miles
Clouds Scattered Clouds 7000 ft
Mostly Cloudy 9000 ft
Dew Point 61 °F
Humidity 82%
Rainfall 0.00 in
Snow Depth Not available.
UV 0 out of 12
Pollen 7.10 out of 12
Air Quality Not available.
Flu Activity Not available.
METAR KSTC 010553Z AUTO 22003KT 10SM SCT070 BKN090 18/15 A3000 RMK AO2 SLP162 T01780150 10261 20172 402780161 51004

More Conditions Fewer Conditions

10-Day Weather Forecast

×

Almanac

Astronomy

Aug. 01, 2015 Rise Set
Actual Time
Civil Twilight
Nautical Twilight
Astronomical Twilight
Moon
Length of Visible Light
Length of Day
Tomorrow will be .
, % of the Moon is Illuminated

Today's Extremes

State Highs State Lows

Community

WunderPhotos

Upload Photos

1,842,892 photos uploaded!

WunderBlogs® & News

Nearby

Air Quality

  Air Quality AQ Index Pollutant
Not available.

Snow Depth

Station Depth Elevation

Earthquake Activity

City Distance Mag. Time & Date
Minimum magnitude displayed is 2.5.

Coastal Water Temperatures

Place Temperature

Stations

Nearby Weather Stations

Station Location Temp. Windchill Dew Point Humidity Wind Precip. Elev Updated Type